createdAt,value
2023-04-15T00:00:57.832Z,7.19
2023-04-15T00:03:25.577Z,7.16
2023-04-15T00:05:53.032Z,7.20
2023-04-15T00:08:20.199Z,7.26
2023-04-15T00:10:48.824Z,7.23
2023-04-15T00:13:16.089Z,7.28
2023-04-15T00:15:43.629Z,7.25
2023-04-15T00:18:10.833Z,7.25
2023-04-15T00:20:38.088Z,7.25
2023-04-15T00:23:05.382Z,7.25
2023-04-15T00:25:32.872Z,7.24
2023-04-15T00:28:01.534Z,7.27
2023-04-15T00:30:28.863Z,7.26
2023-04-15T00:32:56.179Z,7.28
2023-04-15T00:35:23.539Z,7.30
2023-04-15T00:37:51.369Z,7.27
2023-04-15T00:40:21.439Z,7.29
2023-04-15T00:42:48.669Z,7.24
2023-04-15T00:45:17.358Z,7.24
2023-04-15T00:47:44.829Z,7.29
2023-04-15T00:50:12.867Z,7.28
2023-04-15T00:52:40.452Z,7.36
2023-04-15T00:55:09.047Z,7.37
2023-04-15T00:57:36.761Z,7.36
2023-04-15T01:00:08.065Z,7.35
2023-04-15T01:02:36.972Z,7.37
2023-04-15T01:05:04.845Z,7.34
2023-04-15T01:07:32.395Z,7.32
2023-04-15T01:09:59.951Z,7.38
2023-04-15T01:12:27.797Z,7.36
2023-04-15T01:14:55.731Z,7.38
2023-04-15T01:17:24.213Z,7.35
2023-04-15T01:19:53.007Z,7.37
2023-04-15T01:22:20.565Z,7.33
2023-04-15T01:24:54.900Z,7.35
2023-04-15T01:27:23.755Z,7.31
2023-04-15T01:29:51.339Z,7.37
2023-04-15T01:32:18.619Z,7.27
2023-04-15T01:34:45.857Z,7.23
2023-04-15T01:37:13.114Z,7.31
2023-04-15T01:39:40.322Z,7.27
2023-04-15T01:42:07.847Z,7.26
2023-04-15T01:44:36.402Z,7.33
2023-04-15T01:47:03.701Z,7.27
2023-04-15T01:49:31.008Z,7.30
2023-04-15T01:51:58.265Z,7.28
2023-04-15T01:54:25.458Z,7.32
2023-04-15T01:56:52.863Z,7.27
2023-04-15T01:59:20.123Z,7.22
2023-04-15T02:01:49.043Z,7.16
2023-04-15T02:04:16.349Z,7.20
2023-04-15T02:06:43.723Z,7.08
2023-04-15T02:09:10.956Z,7.04
2023-04-15T02:11:38.300Z,7.07
2023-04-15T02:14:05.685Z,7.06
2023-04-15T02:16:33.615Z,7.03
2023-04-15T02:19:02.524Z,6.98
2023-04-15T02:21:30.719Z,6.93
2023-04-15T02:23:57.950Z,6.95
2023-04-15T02:26:25.390Z,7.01
2023-04-15T02:28:54.884Z,6.99
2023-04-15T02:31:22.264Z,6.94
2023-04-15T02:33:49.545Z,7.04
2023-04-15T02:36:18.240Z,7.05
2023-04-15T02:38:45.447Z,6.97
2023-04-15T02:41:14.742Z,7.01
2023-04-15T02:43:42.652Z,6.90
2023-04-15T02:46:10.317Z,6.97
2023-04-15T02:48:38.805Z,6.99
2023-04-15T02:51:16.219Z,7.02
2023-04-15T02:53:44.964Z,7.06
2023-04-15T02:56:12.601Z,7.08
2023-04-15T02:58:40.994Z,7.15
2023-04-15T03:01:08.315Z,7.13
2023-04-15T03:03:36.104Z,7.13
2023-04-15T03:06:03.553Z,7.15
2023-04-15T03:08:30.987Z,7.14
2023-04-15T03:11:00.038Z,7.25
2023-04-15T03:13:28.298Z,7.26
2023-04-15T03:15:57.578Z,7.25
2023-04-15T03:18:25.065Z,7.21
2023-04-15T03:20:52.272Z,7.15
2023-04-15T03:23:19.987Z,7.20
2023-04-15T03:25:47.319Z,7.28
2023-04-15T03:28:16.837Z,7.26
2023-04-15T03:30:44.297Z,7.31
2023-04-15T03:33:11.771Z,7.40
2023-04-15T03:35:39.528Z,7.32
2023-04-15T03:38:06.723Z,7.33
2023-04-15T03:40:34.075Z,7.33
2023-04-15T03:43:01.287Z,7.38
2023-04-15T03:45:30.204Z,7.43
2023-04-15T03:48:03.706Z,7.38
2023-04-15T03:50:43.166Z,7.35
2023-04-15T03:53:10.402Z,7.39
2023-04-15T03:55:37.576Z,7.44
2023-04-15T03:58:04.825Z,7.40
2023-04-15T04:00:33.462Z,7.41
2023-04-15T04:03:00.890Z,7.48
2023-04-15T04:05:28.249Z,7.40
2023-04-15T04:07:55.653Z,7.51
2023-04-15T04:10:23.025Z,7.49
2023-04-15T04:12:50.236Z,7.40
2023-04-15T04:15:17.662Z,7.37
2023-04-15T04:17:46.292Z,7.52
2023-04-15T04:20:13.602Z,7.45
2023-04-15T04:22:41.293Z,7.49
2023-04-15T04:25:09.521Z,7.53
2023-04-15T04:27:37.052Z,7.49
2023-04-15T04:30:05.256Z,7.47
2023-04-15T04:32:32.466Z,7.46
2023-04-15T04:35:01.152Z,7.49
2023-04-15T04:37:28.381Z,7.50
2023-04-15T04:39:55.686Z,7.50
2023-04-15T04:42:23.125Z,7.55
2023-04-15T04:44:50.354Z,7.55
2023-04-15T04:47:17.561Z,7.51
2023-04-15T04:49:44.835Z,7.53
2023-04-15T04:52:13.431Z,7.41
2023-04-15T04:54:40.663Z,7.52
2023-04-15T04:57:07.889Z,7.48
2023-04-15T04:59:35.108Z,7.53
2023-04-15T05:02:02.466Z,7.50
2023-04-15T05:04:29.805Z,7.45
2023-04-15T05:06:56.962Z,7.58
2023-04-15T05:09:25.652Z,7.56
2023-04-15T05:11:52.930Z,7.51
2023-04-15T05:14:21.155Z,7.50
2023-04-15T05:16:50.562Z,7.45
2023-04-15T05:19:18.146Z,7.41
2023-04-15T05:21:45.373Z,7.45
2023-04-15T05:24:12.618Z,7.47
2023-04-15T05:26:42.420Z,7.48
2023-04-15T05:29:10.478Z,7.40
2023-04-15T05:31:38.190Z,7.40
2023-04-15T05:34:05.591Z,7.46
2023-04-15T05:36:32.867Z,7.44
2023-04-15T05:39:00.463Z,7.42
2023-04-15T05:41:27.990Z,7.43
2023-04-15T05:43:56.703Z,7.47
2023-04-15T05:46:24.080Z,7.48
2023-04-15T05:48:51.388Z,7.50
2023-04-15T05:51:18.633Z,7.57
2023-04-15T05:53:46.181Z,7.54
2023-04-15T05:56:13.460Z,7.56
2023-04-15T05:58:40.755Z,7.56
2023-04-15T06:01:09.412Z,7.53
2023-04-15T06:03:36.931Z,7.51
2023-04-15T06:06:04.490Z,7.57
2023-04-15T06:08:31.864Z,7.63
2023-04-15T06:10:59.252Z,7.66
2023-04-15T06:13:26.554Z,7.65
2023-04-15T06:15:53.820Z,7.66
2023-04-15T06:18:22.567Z,7.71
2023-04-15T06:20:49.882Z,7.76
2023-04-15T06:23:17.130Z,7.83
2023-04-15T06:25:44.652Z,7.78
2023-04-15T06:28:12.089Z,7.80
2023-04-15T06:30:39.308Z,7.85
2023-04-15T06:33:06.645Z,7.85
2023-04-15T06:35:35.239Z,7.88
2023-04-15T06:38:02.647Z,7.80
2023-04-15T06:40:29.966Z,7.83
2023-04-15T06:42:57.470Z,7.80
2023-04-15T06:45:24.921Z,7.81
2023-04-15T06:47:52.312Z,7.85
2023-04-15T06:50:19.565Z,7.84
2023-04-15T06:52:48.223Z,7.89
2023-04-15T06:55:15.599Z,7.92
2023-04-15T06:57:43.054Z,7.90
2023-04-15T07:00:11.688Z,7.95
2023-04-15T07:02:39.252Z,7.91
2023-04-15T07:05:07.383Z,7.92
2023-04-15T07:07:34.856Z,7.94
2023-04-15T07:10:03.847Z,8.00
2023-04-15T07:12:31.194Z,8.04
2023-04-15T07:14:58.417Z,8.13
2023-04-15T07:17:25.797Z,8.05
2023-04-15T07:19:53.008Z,8.19
2023-04-15T07:22:20.297Z,8.17
2023-04-15T07:24:47.572Z,8.20
2023-04-15T07:27:16.211Z,8.29
2023-04-15T07:29:43.480Z,8.22
2023-04-15T07:32:10.865Z,8.21
2023-04-15T07:34:38.081Z,8.30
2023-04-15T07:37:05.400Z,8.33
2023-04-15T07:39:32.596Z,8.36
2023-04-15T07:41:59.828Z,8.36
2023-04-15T07:44:28.678Z,8.39
2023-04-15T07:46:56.324Z,8.37
2023-04-15T07:49:23.704Z,8.39
2023-04-15T07:51:50.918Z,8.45
2023-04-15T07:54:18.126Z,8.44
2023-04-15T07:56:45.422Z,8.45
2023-04-15T07:59:12.571Z,8.54
2023-04-15T08:01:41.161Z,8.51
2023-04-15T08:04:08.462Z,8.57
2023-04-15T08:06:35.989Z,8.58
2023-04-15T08:09:03.635Z,8.53
2023-04-15T08:11:31.271Z,8.55
2023-04-15T08:13:58.545Z,8.59
2023-04-15T08:16:27.003Z,8.57
2023-04-15T08:18:56.450Z,8.63
2023-04-15T08:21:24.328Z,8.65
2023-04-15T08:23:52.924Z,8.59
2023-04-15T08:26:21.343Z,8.64
2023-04-15T08:28:49.603Z,8.63
2023-04-15T08:31:18.105Z,8.65
2023-04-15T08:33:46.042Z,8.69
2023-04-15T08:36:14.693Z,8.62
2023-04-15T08:38:42.209Z,8.74
2023-04-15T08:41:17.681Z,8.76
2023-04-15T08:43:51.736Z,8.77
2023-04-15T08:46:20.584Z,8.76
2023-04-15T08:48:48.578Z,8.78
2023-04-15T08:51:17.748Z,8.73
2023-04-15T08:53:45.345Z,8.76
2023-04-15T08:56:13.782Z,8.77
2023-04-15T08:58:41.425Z,8.84
2023-04-15T09:01:09.415Z,8.82
2023-04-15T09:03:37.431Z,8.79
2023-04-15T09:06:05.266Z,8.77
2023-04-15T09:08:34.090Z,8.85
2023-04-15T09:11:01.804Z,8.86
2023-04-15T09:13:29.363Z,8.90
2023-04-15T09:15:56.698Z,8.90
2023-04-15T09:18:28.257Z,8.93
2023-04-15T09:20:55.759Z,8.92
2023-04-15T09:23:23.178Z,8.91
2023-04-15T09:25:51.856Z,8.94
2023-04-15T09:28:24.784Z,8.94
2023-04-15T09:30:55.226Z,8.99
2023-04-15T09:33:22.481Z,9.01
2023-04-15T09:36:01.083Z,9.00
2023-04-15T09:38:28.393Z,8.98
2023-04-15T09:40:57.998Z,9.03
2023-04-15T09:43:38.178Z,9.03
2023-04-15T09:46:05.674Z,9.08
2023-04-15T09:48:32.995Z,9.00
2023-04-15T09:51:01.959Z,9.07
2023-04-15T09:53:31.615Z,9.07
2023-04-15T09:56:01.360Z,9.02
2023-04-15T09:58:30.526Z,9.08
2023-04-15T10:00:59.507Z,9.06
2023-04-15T10:03:28.845Z,9.15
2023-04-15T10:05:59.003Z,9.14
2023-04-15T10:08:29.034Z,9.15
2023-04-15T10:10:56.835Z,9.17
2023-04-15T10:13:29.697Z,9.25
2023-04-15T10:16:05.207Z,9.22
2023-04-15T10:18:35.441Z,9.24
2023-04-15T10:21:02.626Z,9.33
2023-04-15T10:23:30.378Z,9.40
2023-04-15T10:25:58.725Z,9.46
2023-04-15T10:28:27.823Z,9.52
2023-04-15T10:30:56.110Z,9.43
2023-04-15T10:33:24.559Z,9.39
2023-04-15T10:35:54.141Z,9.47
2023-04-15T10:38:35.634Z,9.48
2023-04-15T10:41:19.485Z,9.44
2023-04-15T10:43:50.954Z,9.44
2023-04-15T10:46:19.991Z,9.47
2023-04-15T10:48:48.744Z,9.49
2023-04-15T10:51:16.118Z,9.50
2023-04-15T10:53:43.392Z,9.53
2023-04-15T10:56:10.747Z,9.49
2023-04-15T10:58:42.417Z,9.43
2023-04-15T11:01:11.090Z,9.43
2023-04-15T11:03:39.823Z,9.47
2023-04-15T11:06:09.217Z,9.40
2023-04-15T11:08:57.099Z,9.51
2023-04-15T11:12:03.417Z,9.45
2023-04-15T11:14:32.605Z,9.40
2023-04-15T11:17:01.310Z,9.47
2023-04-15T11:19:36.395Z,9.52
2023-04-15T11:22:07.839Z,9.44
2023-04-15T11:24:35.267Z,9.43
2023-04-15T11:27:02.675Z,9.48
2023-04-15T11:29:30.435Z,9.63
2023-04-15T11:32:06.424Z,9.58
2023-04-15T11:34:35.628Z,9.58
2023-04-15T11:37:04.650Z,9.57
2023-04-15T11:39:32.300Z,9.60
2023-04-15T11:41:59.490Z,9.56
2023-04-15T11:44:26.801Z,9.68
2023-04-15T11:46:55.409Z,9.64
2023-04-15T11:49:30.991Z,9.75
2023-04-15T11:51:58.333Z,9.68
2023-04-15T11:54:25.736Z,9.66
2023-04-15T11:56:53.069Z,9.71
2023-04-15T11:59:20.422Z,9.86
2023-04-15T12:01:47.760Z,10.07
2023-04-15T12:04:16.890Z,10.03
2023-04-15T12:06:45.965Z,9.86
2023-04-15T12:09:14.286Z,10.05
2023-04-15T12:11:43.948Z,10.01
2023-04-15T12:14:16.408Z,10.00
2023-04-15T12:16:48.602Z,10.06
2023-04-15T12:19:22.756Z,10.01
2023-04-15T12:21:53.369Z,10.09
2023-04-15T12:24:22.026Z,10.12
2023-04-15T12:26:51.424Z,10.06
2023-04-15T12:29:19.788Z,10.20
2023-04-15T12:31:51.961Z,10.07
2023-04-15T12:34:27.128Z,10.26
2023-04-15T12:36:56.993Z,10.26
2023-04-15T12:39:24.651Z,10.26
2023-04-15T12:41:52.062Z,10.12
2023-04-15T12:44:19.763Z,10.19
2023-04-15T12:46:47.116Z,10.27
2023-04-15T12:49:14.380Z,10.37
2023-04-15T12:51:42.105Z,10.36
2023-04-15T12:54:11.305Z,10.54
2023-04-15T12:56:39.199Z,10.54
2023-04-15T12:59:06.515Z,10.51
2023-04-15T13:01:33.798Z,10.69
2023-04-15T13:04:01.366Z,10.70
2023-04-15T13:06:29.472Z,10.72
2023-04-15T13:08:58.681Z,10.74
2023-04-15T13:11:28.225Z,10.76
2023-04-15T13:13:55.496Z,10.66
2023-04-15T13:16:22.794Z,10.62
2023-04-15T13:18:50.654Z,10.72
2023-04-15T13:21:19.869Z,11.08
2023-04-15T13:23:48.487Z,11.57
2023-04-15T13:26:15.678Z,11.87
2023-04-15T13:28:44.542Z,13.10
2023-04-15T13:31:13.078Z,14.36
2023-04-15T13:33:40.451Z,14.30
2023-04-15T13:36:08.513Z,14.65
2023-04-15T13:38:35.733Z,14.23
2023-04-15T13:41:03.090Z,13.71
2023-04-15T13:43:30.337Z,13.82
2023-04-15T13:45:58.984Z,14.27
2023-04-15T13:48:26.196Z,13.50
2023-04-15T13:50:53.456Z,13.46
2023-04-15T13:53:20.648Z,13.44
2023-04-15T13:56:01.402Z,13.14
2023-04-15T13:58:28.587Z,12.92
2023-04-15T14:00:55.902Z,13.19
2023-04-15T14:03:24.707Z,13.29
2023-04-15T14:05:52.197Z,13.24
2023-04-15T14:08:19.413Z,13.08
2023-04-15T14:10:46.757Z,13.68
2023-04-15T14:13:13.982Z,13.13
2023-04-15T14:15:41.579Z,13.58
2023-04-15T14:18:08.824Z,13.72
2023-04-15T14:20:37.573Z,15.53
2023-04-15T14:23:05.101Z,15.50
2023-04-15T14:25:34.034Z,15.72
2023-04-15T14:28:01.367Z,14.41
2023-04-15T14:30:28.640Z,14.14
2023-04-15T14:32:56.544Z,16.37
2023-04-15T14:35:24.024Z,16.39
2023-04-15T14:37:52.990Z,15.09
2023-04-15T14:40:20.493Z,14.25
2023-04-15T14:42:48.179Z,14.04
2023-04-15T14:45:15.679Z,14.68
2023-04-15T14:47:43.108Z,15.04
2023-04-15T14:50:10.914Z,15.52
2023-04-15T14:52:38.325Z,15.70
2023-04-15T14:55:09.173Z,14.80
2023-04-15T14:57:37.153Z,14.28
2023-04-15T15:00:08.346Z,13.96
2023-04-15T15:02:39.268Z,14.51
2023-04-15T15:05:08.888Z,15.14
2023-04-15T15:07:36.559Z,15.97
2023-04-15T15:10:04.488Z,15.70
2023-04-15T15:12:33.944Z,15.85
2023-04-15T15:15:06.895Z,15.46
2023-04-15T15:17:37.080Z,14.95
2023-04-15T15:20:05.653Z,14.60
2023-04-15T15:22:32.937Z,14.17
2023-04-15T15:25:00.490Z,13.77
2023-04-15T15:27:28.067Z,13.55
2023-04-15T15:29:58.271Z,13.58
2023-04-15T15:32:25.880Z,13.56
2023-04-15T15:34:53.250Z,13.88
2023-04-15T15:37:20.673Z,14.05
2023-04-15T15:39:48.112Z,14.25
2023-04-15T15:42:15.343Z,14.58
2023-04-15T15:44:42.547Z,14.78
2023-04-15T15:47:11.723Z,14.63
2023-04-15T15:49:39.876Z,14.46
2023-04-15T15:52:07.310Z,14.23
2023-04-15T15:54:34.562Z,14.03
2023-04-15T15:57:01.915Z,13.96
2023-04-15T15:59:29.478Z,14.02
2023-04-15T16:01:56.907Z,13.98
2023-04-15T16:04:25.844Z,13.95
2023-04-15T16:06:53.686Z,13.80
2023-04-15T16:09:20.956Z,13.85
2023-04-15T16:11:48.366Z,13.66
2023-04-15T16:14:15.599Z,13.65
2023-04-15T16:16:42.999Z,13.58
2023-04-15T16:19:10.327Z,13.65
2023-04-15T16:21:38.953Z,13.58
2023-04-15T16:24:06.794Z,13.63
2023-04-15T16:26:34.067Z,13.61
2023-04-15T16:29:01.852Z,13.50
2023-04-15T16:31:29.924Z,13.60
2023-04-15T16:33:57.535Z,13.45
2023-04-15T16:36:24.853Z,13.37
2023-04-15T16:38:53.493Z,13.34
2023-04-15T16:41:20.973Z,13.41
2023-04-15T16:43:48.228Z,13.39
2023-04-15T16:46:15.752Z,13.20
2023-04-15T16:48:43.068Z,13.25
2023-04-15T16:51:10.303Z,13.21
2023-04-15T16:53:37.808Z,13.32
2023-04-15T16:56:06.903Z,13.30
2023-04-15T16:58:34.060Z,13.35
2023-04-15T17:01:01.526Z,13.34
2023-04-15T17:03:29.119Z,13.25
2023-04-15T17:05:57.028Z,13.35
2023-04-15T17:08:24.240Z,13.22
2023-04-15T17:10:51.705Z,13.28
2023-04-15T17:13:20.348Z,13.22
2023-04-15T17:15:47.656Z,13.13
2023-04-15T17:18:14.973Z,13.19
2023-04-15T17:20:42.393Z,13.13
2023-04-15T17:23:09.565Z,13.09
2023-04-15T17:25:37.671Z,13.00
2023-04-15T17:28:04.986Z,13.09
2023-04-15T17:30:34.084Z,13.03
2023-04-15T17:33:01.975Z,13.00
2023-04-15T17:35:29.425Z,13.03
2023-04-15T17:37:56.951Z,12.93
2023-04-15T17:40:24.334Z,12.80
2023-04-15T17:42:52.539Z,12.86
2023-04-15T17:45:19.851Z,12.88
2023-04-15T17:47:48.590Z,12.83
2023-04-15T17:50:15.970Z,12.81
2023-04-15T17:52:44.233Z,12.75
2023-04-15T17:55:11.883Z,12.83
2023-04-15T17:57:39.120Z,12.73
2023-04-15T18:00:08.845Z,12.78
2023-04-15T18:02:40.391Z,12.65
2023-04-15T18:05:09.731Z,12.64
2023-04-15T18:07:37.035Z,12.54
2023-04-15T18:10:05.411Z,12.62
2023-04-15T18:12:32.766Z,12.52
2023-04-15T18:15:00.325Z,12.59
2023-04-15T18:17:27.748Z,12.59
2023-04-15T18:19:55.233Z,12.55
2023-04-15T18:22:24.080Z,12.47
2023-04-15T18:24:51.392Z,12.42
2023-04-15T18:27:18.609Z,12.37
2023-04-15T18:29:46.502Z,12.41
2023-04-15T18:32:13.834Z,12.36
2023-04-15T18:34:42.327Z,12.27
2023-04-15T18:37:09.627Z,12.33
2023-04-15T18:39:38.288Z,12.24
2023-04-15T18:42:05.628Z,12.20
2023-04-15T18:44:33.031Z,12.21
2023-04-15T18:47:00.804Z,12.25
2023-04-15T18:49:28.141Z,12.21
2023-04-15T18:51:55.386Z,12.21
2023-04-15T18:54:22.649Z,12.22
2023-04-15T18:56:51.384Z,12.17
2023-04-15T18:59:28.950Z,12.17
2023-04-15T19:01:58.467Z,12.23
2023-04-15T19:04:26.032Z,12.13
2023-04-15T19:06:53.336Z,12.07
2023-04-15T19:09:20.660Z,12.07
2023-04-15T19:11:48.216Z,12.07
2023-04-15T19:14:17.058Z,12.08
2023-04-15T19:16:44.581Z,12.04
2023-04-15T19:19:11.916Z,12.04
2023-04-15T19:21:39.369Z,12.10
2023-04-15T19:24:06.906Z,12.04
2023-04-15T19:26:34.444Z,11.96
2023-04-15T19:29:01.615Z,11.98
2023-04-15T19:31:30.418Z,11.94
2023-04-15T19:33:57.746Z,11.92
2023-04-15T19:36:25.183Z,11.98
2023-04-15T19:38:52.836Z,11.95
2023-04-15T19:41:20.268Z,11.89
2023-04-15T19:43:47.552Z,11.88
2023-04-15T19:46:14.967Z,11.86
2023-04-15T19:48:44.860Z,11.85
2023-04-15T19:51:12.481Z,11.83
2023-04-15T19:53:39.840Z,11.84
2023-04-15T19:56:07.743Z,11.83
2023-04-15T19:58:35.064Z,11.86
2023-04-15T20:01:02.604Z,11.86
2023-04-15T20:03:30.655Z,11.79
2023-04-15T20:05:59.384Z,11.85
2023-04-15T20:08:26.734Z,11.77
2023-04-15T20:10:54.070Z,11.71
2023-04-15T20:13:21.294Z,11.68
2023-04-15T20:15:48.709Z,11.66
2023-04-15T20:18:16.269Z,11.63
2023-04-15T20:20:43.714Z,11.63
2023-04-15T20:23:12.599Z,11.60
2023-04-15T20:25:40.168Z,11.57
2023-04-15T20:28:07.528Z,11.60
2023-04-15T20:30:34.962Z,11.55
2023-04-15T20:33:02.262Z,11.57
2023-04-15T20:35:29.759Z,11.55
2023-04-15T20:37:57.076Z,11.50
2023-04-15T20:40:25.856Z,11.47
2023-04-15T20:42:53.096Z,11.41
2023-04-15T20:45:20.407Z,11.44
2023-04-15T20:47:47.809Z,11.46
2023-04-15T20:50:15.350Z,11.41
2023-04-15T20:52:42.720Z,11.52
2023-04-15T20:55:10.187Z,11.38
2023-04-15T20:57:38.891Z,11.41
2023-04-15T21:00:07.427Z,11.38
2023-04-15T21:02:34.719Z,11.38
2023-04-15T21:05:02.137Z,11.35
2023-04-15T21:07:29.463Z,11.32
2023-04-15T21:09:56.751Z,11.24
2023-04-15T21:12:24.138Z,11.32
2023-04-15T21:14:52.893Z,11.18
2023-04-15T21:17:20.183Z,11.15
2023-04-15T21:19:47.765Z,11.11
2023-04-15T21:22:14.967Z,11.09
2023-04-15T21:24:42.272Z,11.01
2023-04-15T21:27:09.804Z,10.98
2023-04-15T21:29:37.108Z,11.00
2023-04-15T21:32:05.925Z,10.94
2023-04-15T21:34:33.465Z,10.98
2023-04-15T21:37:00.796Z,10.91
2023-04-15T21:39:28.127Z,10.86
2023-04-15T21:41:56.371Z,10.92
2023-04-15T21:44:23.843Z,10.85
2023-04-15T21:46:51.595Z,10.85
2023-04-15T21:49:20.347Z,10.78
2023-04-15T21:51:47.874Z,10.75
2023-04-15T21:54:15.861Z,10.65
2023-04-15T21:56:43.054Z,10.59
2023-04-15T21:59:10.843Z,10.51
2023-04-15T22:01:38.532Z,10.48
2023-04-15T22:04:06.112Z,10.32
2023-04-15T22:06:34.852Z,10.30
2023-04-15T22:09:02.243Z,10.24
2023-04-15T22:11:29.813Z,10.21
2023-04-15T22:13:57.692Z,10.13
2023-04-15T22:16:24.983Z,10.13
2023-04-15T22:18:52.453Z,10.11
2023-04-15T22:21:19.639Z,10.04
2023-04-15T22:23:49.360Z,10.03
2023-04-15T22:26:16.753Z,9.95
2023-04-15T22:28:44.091Z,9.93
2023-04-15T22:31:11.350Z,9.92
2023-04-15T22:33:38.707Z,9.91
2023-04-15T22:36:06.498Z,9.83
2023-04-15T22:38:33.808Z,9.82
2023-04-15T22:41:02.486Z,9.81
2023-04-15T22:43:29.725Z,9.79
2023-04-15T22:45:57.018Z,9.83
2023-04-15T22:48:24.678Z,9.77
2023-04-15T22:50:52.035Z,9.78
2023-04-15T22:53:19.252Z,9.72
2023-04-15T22:55:47.279Z,9.70
2023-04-15T22:58:16.533Z,9.70
2023-04-15T23:00:43.860Z,9.64
2023-04-15T23:03:11.365Z,9.63
2023-04-15T23:05:38.875Z,9.58
2023-04-15T23:08:06.490Z,9.57
2023-04-15T23:10:34.032Z,9.52
2023-04-15T23:13:01.303Z,9.50
2023-04-15T23:15:29.874Z,9.47
2023-04-15T23:17:57.179Z,9.46
2023-04-15T23:20:24.591Z,9.37
2023-04-15T23:22:51.837Z,9.41
2023-04-15T23:25:19.037Z,9.38
2023-04-15T23:27:46.355Z,9.37
2023-04-15T23:30:13.591Z,9.38
2023-04-15T23:32:42.300Z,9.39
2023-04-15T23:35:09.723Z,9.37
2023-04-15T23:37:37.016Z,9.41
2023-04-15T23:40:05.486Z,9.36
2023-04-15T23:42:32.721Z,9.32
2023-04-15T23:44:59.910Z,9.31
2023-04-15T23:47:27.476Z,9.27
2023-04-15T23:49:57.068Z,9.28
2023-04-15T23:52:24.576Z,9.26
2023-04-15T23:54:51.938Z,9.25
2023-04-15T23:57:19.278Z,9.22
2023-04-15T23:59:46.493Z,9.23
